Westmoreland, Virginia
Current Conditions -  °F | °C
As of 6:53 AM on Monday 24 Nov 2014 (Local Time) from KNUI Reporting Station
Broken Clouds Broken Clouds  
Wind Chill: 65°   Ceiling: 2400
Heat Index: 65°   Visibility: 10mi
Dew Point: 62°   Wind: 8mph
Humidity: 90%   Direction: 180°S
Pressure: 29.71"   Gusts: NA
Location:  38.06°N, 76.55°W
Report Text: KNUI 241153Z AUTO 18007KT 10SM FEW018 BKN024 BKN028 18/17 A2971 RMK AO2 SLP061 60006 70023 T01830167 10189 20150 55001 $
Loading
Personal Weather Stations






























Interactive Weather Map New forecast layout! Learn more

10-Day Weather Forecast

Advertisements
Track Severe Weather on mobile